createdAt,value
2022-10-11T00:00:22.009Z,9.35
2022-10-11T00:02:48.904Z,9.37
2022-10-11T00:05:15.810Z,9.16
2022-10-11T00:07:43.387Z,9.33
2022-10-11T00:10:10.968Z,9.44
2022-10-11T00:12:38.000Z,9.35
2022-10-11T00:15:06.771Z,9.37
2022-10-11T00:17:34.797Z,9.45
2022-10-11T00:20:01.629Z,9.41
2022-10-11T00:22:28.637Z,9.53
2022-10-11T00:24:55.470Z,9.36
2022-10-11T00:27:22.403Z,9.31
2022-10-11T00:29:49.171Z,9.32
2022-10-11T00:32:16.417Z,9.21
2022-10-11T00:34:48.766Z,9.09
2022-10-11T00:37:15.629Z,9.08
2022-10-11T00:39:51.552Z,9.15
2022-10-11T00:42:18.798Z,9.29
2022-10-11T00:44:50.826Z,9.07
2022-10-11T00:47:24.488Z,9.13
2022-10-11T00:49:59.365Z,9.19
2022-10-11T00:52:33.404Z,9.10
2022-10-11T00:55:07.399Z,9.17
2022-10-11T00:57:39.897Z,9.20
2022-10-11T01:00:10.781Z,9.06
2022-10-11T01:02:38.375Z,9.22
2022-10-11T01:05:28.046Z,9.09
2022-10-11T01:07:55.843Z,8.96
2022-10-11T01:10:23.032Z,9.11
2022-10-11T01:13:11.266Z,9.15
2022-10-11T01:16:03.087Z,8.99
2022-10-11T01:19:05.872Z,8.99
2022-10-11T01:21:55.801Z,8.99
2022-10-11T01:24:34.550Z,8.93
2022-10-11T01:27:20.019Z,8.94
2022-10-11T01:30:05.015Z,8.93
2022-10-11T01:32:47.146Z,8.93
2022-10-11T01:35:41.026Z,8.92
2022-10-11T01:38:13.964Z,8.81
2022-10-11T01:41:12.975Z,8.94
2022-10-11T01:43:42.628Z,8.85
2022-10-11T01:46:11.041Z,8.87
2022-10-11T01:49:07.424Z,8.95
2022-10-11T01:51:47.482Z,9.01
2022-10-11T01:54:49.793Z,8.89
2022-10-11T01:57:50.111Z,8.96
2022-10-11T02:00:44.706Z,8.96
2022-10-11T02:03:23.721Z,9.07
2022-10-11T02:06:11.638Z,8.97
2022-10-11T02:08:50.177Z,8.92
2022-10-11T02:11:26.597Z,8.91
2022-10-11T02:14:04.687Z,8.94
2022-10-11T02:17:07.223Z,8.93
2022-10-11T02:19:44.706Z,9.00
2022-10-11T02:22:23.263Z,8.80
2022-10-11T02:24:55.432Z,8.85
2022-10-11T02:27:27.652Z,8.78
2022-10-11T02:29:59.888Z,8.79
2022-10-11T02:32:29.770Z,8.74
2022-10-11T02:34:59.038Z,8.85
2022-10-11T02:37:41.061Z,8.73
2022-10-11T02:40:15.692Z,8.80
2022-10-11T02:42:53.761Z,8.81
2022-10-11T02:45:34.683Z,8.66
2022-10-11T02:48:02.688Z,8.84
2022-10-11T02:50:44.375Z,8.71
2022-10-11T02:53:11.448Z,8.53
2022-10-11T02:55:38.231Z,8.62
2022-10-11T02:58:06.508Z,8.82
2022-10-11T03:00:33.413Z,8.69
2022-10-11T03:03:00.352Z,8.61
2022-10-11T03:05:27.150Z,8.81
2022-10-11T03:07:57.107Z,8.88
2022-10-11T03:10:23.879Z,8.76
2022-10-11T03:12:50.696Z,8.70
2022-10-11T03:15:17.581Z,8.74
2022-10-11T03:17:44.490Z,8.71
2022-10-11T03:20:11.417Z,8.82
2022-10-11T03:22:38.271Z,8.80
2022-10-11T03:25:05.382Z,8.69
2022-10-11T03:27:53.235Z,8.92
2022-10-11T03:30:20.201Z,8.89
2022-10-11T03:32:47.046Z,8.88
2022-10-11T03:35:13.934Z,8.81
2022-10-11T03:37:40.722Z,8.84
2022-10-11T03:40:08.306Z,8.90
2022-10-11T03:42:35.958Z,8.92
2022-10-11T03:45:03.383Z,8.94
2022-10-11T03:47:31.126Z,8.81
2022-10-11T03:49:58.090Z,8.94
2022-10-11T03:52:24.896Z,8.76
2022-10-11T03:54:52.104Z,9.04
2022-10-11T03:57:19.481Z,8.88
2022-10-11T03:59:46.401Z,9.06
2022-10-11T04:02:13.352Z,8.96
2022-10-11T04:04:40.364Z,9.07
2022-10-11T04:07:07.775Z,9.06
2022-10-11T04:09:34.707Z,8.95
2022-10-11T04:12:01.652Z,8.99
2022-10-11T04:14:28.541Z,8.90
2022-10-11T04:16:58.404Z,8.99
2022-10-11T04:19:27.411Z,8.95
2022-10-11T04:21:54.223Z,9.03
2022-10-11T04:24:21.052Z,8.95
2022-10-11T04:26:48.528Z,8.74
2022-10-11T04:29:15.491Z,8.75
2022-10-11T04:31:42.382Z,8.81
2022-10-11T04:34:09.328Z,8.91
2022-10-11T04:36:36.258Z,8.91
2022-10-11T04:39:05.672Z,8.91
2022-10-11T04:41:32.965Z,8.82
2022-10-11T04:44:01.049Z,8.91
2022-10-11T04:46:28.189Z,8.91
2022-10-11T04:48:55.162Z,8.99
2022-10-11T04:51:22.508Z,9.01
2022-10-11T04:53:49.743Z,8.92
2022-10-11T04:56:17.367Z,8.65
2022-10-11T04:58:45.775Z,8.95
2022-10-11T05:01:12.592Z,9.03
2022-10-11T05:03:43.198Z,9.05
2022-10-11T05:06:10.491Z,9.13
2022-10-11T05:08:39.047Z,8.98
2022-10-11T05:11:10.436Z,8.98
2022-10-11T05:13:37.395Z,8.84
2022-10-11T05:16:10.426Z,8.86
2022-10-11T05:18:57.086Z,9.08
2022-10-11T05:21:26.848Z,9.14
2022-10-11T05:23:55.471Z,8.94
2022-10-11T05:26:23.454Z,9.08
2022-10-11T05:28:50.403Z,9.08
2022-10-11T05:31:17.263Z,9.18
2022-10-11T05:33:44.208Z,9.02
2022-10-11T05:36:11.772Z,9.02
2022-10-11T05:38:39.054Z,8.98
2022-10-11T05:41:06.695Z,9.06
2022-10-11T05:43:33.520Z,9.08
2022-10-11T05:46:00.446Z,9.08
2022-10-11T05:48:27.486Z,9.09
2022-10-11T05:51:06.115Z,9.15
2022-10-11T05:53:33.611Z,8.98
2022-10-11T05:56:20.455Z,8.98
2022-10-11T05:58:47.450Z,8.92
2022-10-11T06:01:26.244Z,8.96
2022-10-11T06:03:53.836Z,9.12
2022-10-11T06:06:20.846Z,8.97
2022-10-11T06:08:51.165Z,9.21
2022-10-11T06:11:25.358Z,9.09
2022-10-11T06:13:57.380Z,9.12
2022-10-11T06:16:24.946Z,9.18
2022-10-11T06:18:58.263Z,9.20
2022-10-11T06:21:25.171Z,9.26
2022-10-11T06:23:56.831Z,9.14
2022-10-11T06:26:27.397Z,9.09
2022-10-11T06:28:54.323Z,9.06
2022-10-11T06:31:21.650Z,9.12
2022-10-11T06:33:48.635Z,9.26
2022-10-11T06:36:16.422Z,9.35
2022-10-11T06:38:45.423Z,9.39
2022-10-11T06:41:21.328Z,9.35
2022-10-11T06:43:48.406Z,9.27
2022-10-11T06:46:16.293Z,9.39
2022-10-11T06:48:44.593Z,9.31
2022-10-11T06:51:17.682Z,9.39
2022-10-11T06:53:52.180Z,9.43
2022-10-11T06:56:19.701Z,9.47
2022-10-11T06:58:46.687Z,9.54
2022-10-11T07:01:15.501Z,9.81
2022-10-11T07:03:42.629Z,9.46
2022-10-11T07:06:11.830Z,9.70
2022-10-11T07:08:39.450Z,9.81
2022-10-11T07:11:11.821Z,9.69
2022-10-11T07:13:39.816Z,9.86
2022-10-11T07:16:10.199Z,9.74
2022-10-11T07:18:37.593Z,9.67
2022-10-11T07:21:11.433Z,9.84
2022-10-11T07:23:38.427Z,9.90
2022-10-11T07:26:06.674Z,9.93
2022-10-11T07:28:35.282Z,9.47
2022-10-11T07:31:28.259Z,10.04
2022-10-11T07:33:55.159Z,9.64
2022-10-11T07:36:22.312Z,9.80
2022-10-11T07:38:49.615Z,9.95
2022-10-11T07:41:16.993Z,9.79
2022-10-11T07:43:44.334Z,9.83
2022-10-11T07:46:11.449Z,9.85
2022-10-11T07:48:38.850Z,9.85
2022-10-11T07:51:07.335Z,9.86
2022-10-11T07:53:45.680Z,9.66
2022-10-11T07:56:15.147Z,9.91
2022-10-11T07:58:43.018Z,10.11
2022-10-11T08:01:11.563Z,9.93
2022-10-11T08:03:38.854Z,9.93
2022-10-11T08:06:08.503Z,10.18
2022-10-11T08:08:50.201Z,9.94
2022-10-11T08:11:36.228Z,9.85
2022-10-11T08:14:05.727Z,10.18
2022-10-11T08:16:32.554Z,10.16
2022-10-11T08:18:59.382Z,10.01
2022-10-11T08:21:26.577Z,9.88
2022-10-11T08:23:53.428Z,10.07
2022-10-11T08:26:21.222Z,10.22
2022-10-11T08:28:48.413Z,10.14
2022-10-11T08:31:16.361Z,10.15
2022-10-11T08:33:44.155Z,10.30
2022-10-11T08:36:12.145Z,10.29
2022-10-11T08:38:39.775Z,10.27
2022-10-11T08:41:23.999Z,10.36
2022-10-11T08:44:06.077Z,10.43
2022-10-11T08:46:34.518Z,10.25
2022-10-11T08:49:02.530Z,10.39
2022-10-11T08:51:48.374Z,10.42
2022-10-11T08:54:39.523Z,10.50
2022-10-11T08:57:09.913Z,10.65
2022-10-11T08:59:44.013Z,10.50
2022-10-11T09:03:06.468Z,10.46
2022-10-11T09:06:00.867Z,10.61
2022-10-11T09:08:46.353Z,10.50
2022-10-11T09:11:35.153Z,10.50
2022-10-11T09:14:22.834Z,10.63
2022-10-11T09:16:57.017Z,10.60
2022-10-11T09:19:24.031Z,10.73
2022-10-11T09:22:30.895Z,10.57
2022-10-11T09:25:00.437Z,10.65
2022-10-11T09:28:01.219Z,10.68
2022-10-11T09:31:09.230Z,10.68
2022-10-11T09:33:49.126Z,10.68
2022-10-11T09:36:22.819Z,10.79
2022-10-11T09:39:15.152Z,10.78
2022-10-11T09:42:00.714Z,10.92
2022-10-11T09:44:32.698Z,11.02
2022-10-11T09:46:59.668Z,10.93
2022-10-11T09:49:37.352Z,10.77
2022-10-11T09:52:11.226Z,10.85
2022-10-11T09:54:41.327Z,10.70
2022-10-11T09:57:20.432Z,10.56
2022-10-11T09:59:59.239Z,10.91
2022-10-11T10:02:27.271Z,10.93
2022-10-11T10:05:20.370Z,10.94
2022-10-11T10:08:26.401Z,10.97
2022-10-11T10:10:59.395Z,10.69
2022-10-11T10:13:46.131Z,10.96
2022-10-11T10:16:28.158Z,10.82
2022-10-11T10:19:05.100Z,11.01
2022-10-11T10:21:36.471Z,11.31
2022-10-11T10:24:17.269Z,11.28
2022-10-11T10:27:23.860Z,11.37
2022-10-11T10:30:15.828Z,11.22
2022-10-11T10:33:00.667Z,11.00
2022-10-11T10:35:41.363Z,11.09
2022-10-11T10:38:26.234Z,11.12
2022-10-11T10:41:11.768Z,11.12
2022-10-11T10:43:50.931Z,11.37
2022-10-11T10:46:37.717Z,11.27
2022-10-11T10:49:54.035Z,11.30
2022-10-11T10:52:42.004Z,11.43
2022-10-11T10:55:30.863Z,11.15
2022-10-11T10:58:21.945Z,10.96
2022-10-11T11:01:05.534Z,10.96
2022-10-11T11:03:53.853Z,11.03
2022-10-11T11:06:36.445Z,11.19
2022-10-11T11:09:14.072Z,11.13
2022-10-11T11:11:49.603Z,11.07
2022-10-11T11:14:19.765Z,11.05
2022-10-11T11:17:26.278Z,11.15
2022-10-11T11:20:02.209Z,11.06
2022-10-11T11:23:03.319Z,11.08
2022-10-11T11:25:46.784Z,11.06
2022-10-11T11:28:26.623Z,11.28
2022-10-11T11:31:13.518Z,11.14
2022-10-11T11:34:05.340Z,11.18
2022-10-11T11:36:54.267Z,11.08
2022-10-11T11:39:24.609Z,11.24
2022-10-11T11:42:23.612Z,11.16
2022-10-11T11:44:51.799Z,10.93
2022-10-11T11:47:45.763Z,11.06
2022-10-11T11:50:12.651Z,10.98
2022-10-11T11:52:44.353Z,11.07
2022-10-11T11:55:43.730Z,10.94
2022-10-11T11:58:35.136Z,10.90
2022-10-11T12:01:39.396Z,10.87
2022-10-11T12:04:28.252Z,10.75
2022-10-11T12:07:19.514Z,10.84
2022-10-11T12:10:24.585Z,10.66
2022-10-11T12:13:07.409Z,10.80
2022-10-11T12:15:35.834Z,10.80
2022-10-11T12:18:13.528Z,10.65
2022-10-11T12:20:42.042Z,10.78
2022-10-11T12:23:30.654Z,10.78
2022-10-11T12:26:29.716Z,10.73
2022-10-11T12:29:18.392Z,10.80
2022-10-11T12:31:51.093Z,10.40
2022-10-11T12:34:36.841Z,10.74
2022-10-11T12:37:18.954Z,10.78
2022-10-11T12:39:54.061Z,10.61
2022-10-11T12:42:36.659Z,10.77
2022-10-11T12:45:13.436Z,10.67
2022-10-11T12:48:20.262Z,10.75
2022-10-11T12:51:15.236Z,10.88
2022-10-11T12:54:24.968Z,10.53
2022-10-11T12:57:11.672Z,10.76
2022-10-11T12:59:45.523Z,10.77
2022-10-11T13:02:40.264Z,10.85
2022-10-11T13:05:23.766Z,10.83
2022-10-11T13:07:53.147Z,10.93
2022-10-11T13:10:26.481Z,11.03
2022-10-11T13:12:55.019Z,11.03
2022-10-11T13:15:23.435Z,11.08
2022-10-11T13:17:50.557Z,10.98
2022-10-11T13:20:17.336Z,11.11
2022-10-11T13:22:47.732Z,11.00
2022-10-11T13:25:20.417Z,10.95
2022-10-11T13:27:49.543Z,11.00
2022-10-11T13:30:20.279Z,10.84
2022-10-11T13:32:48.502Z,10.81
2022-10-11T13:35:54.107Z,11.12
2022-10-11T13:38:31.474Z,10.95
2022-10-11T13:41:01.496Z,10.89
2022-10-11T13:43:30.911Z,10.90
2022-10-11T13:46:01.326Z,10.77
2022-10-11T13:48:31.891Z,10.72
2022-10-11T13:51:13.858Z,10.89
2022-10-11T13:54:01.335Z,10.95
2022-10-11T13:56:32.280Z,10.92
2022-10-11T13:59:02.703Z,10.71
2022-10-11T14:01:36.200Z,10.87
2022-10-11T14:04:07.266Z,10.72
2022-10-11T14:06:43.346Z,10.77
2022-10-11T14:09:26.331Z,10.63
2022-10-11T14:11:56.334Z,10.32
2022-10-11T14:14:33.619Z,10.40
2022-10-11T14:18:02.288Z,10.64
2022-10-11T14:20:40.625Z,10.47
2022-10-11T14:23:10.405Z,10.38
2022-10-11T14:25:38.488Z,10.37
2022-10-11T14:28:11.288Z,10.30
2022-10-11T14:30:41.351Z,9.91
2022-10-11T14:33:08.221Z,10.11
2022-10-11T14:35:36.955Z,9.97
2022-10-11T14:38:03.846Z,10.07
2022-10-11T14:40:31.505Z,9.92
2022-10-11T14:43:00.897Z,10.14
2022-10-11T14:45:27.808Z,10.08
2022-10-11T14:47:55.908Z,10.07
2022-10-11T14:50:37.521Z,10.09
2022-10-11T14:53:05.949Z,10.01
2022-10-11T14:55:52.812Z,9.93
2022-10-11T14:58:19.762Z,9.96
2022-10-11T15:00:46.602Z,9.92
2022-10-11T15:03:13.518Z,9.48
2022-10-11T15:05:40.380Z,9.72
2022-10-11T15:08:07.836Z,9.62
2022-10-11T15:10:45.253Z,9.47
2022-10-11T15:13:12.282Z,9.59
2022-10-11T15:15:39.584Z,9.49
2022-10-11T15:18:08.623Z,9.53
2022-10-11T15:20:44.762Z,9.65
2022-10-11T15:23:14.942Z,9.45
2022-10-11T15:25:41.886Z,9.67
2022-10-11T15:28:20.920Z,9.58
2022-10-11T15:30:48.268Z,9.76
2022-10-11T15:33:15.071Z,9.60
2022-10-11T15:35:41.996Z,9.55
2022-10-11T15:38:24.686Z,9.58
2022-10-11T15:40:53.270Z,9.54
2022-10-11T15:43:24.461Z,9.51
2022-10-11T15:45:56.925Z,9.46
2022-10-11T15:48:26.756Z,9.57
2022-10-11T15:50:56.272Z,9.40
2022-10-11T15:53:26.088Z,9.43
2022-10-11T15:56:29.287Z,9.42
2022-10-11T15:58:58.700Z,9.22
2022-10-11T16:01:27.921Z,9.31
2022-10-11T16:03:54.881Z,9.38
2022-10-11T16:06:22.238Z,9.34
2022-10-11T16:08:49.269Z,9.38
2022-10-11T16:11:16.647Z,9.45
2022-10-11T16:13:47.289Z,9.47
2022-10-11T16:16:14.133Z,9.50
2022-10-11T16:18:40.936Z,9.25
2022-10-11T16:21:11.042Z,9.25
2022-10-11T16:23:38.290Z,9.24
2022-10-11T16:26:08.346Z,9.39
2022-10-11T16:28:35.945Z,9.15
2022-10-11T16:31:10.766Z,9.19
2022-10-11T16:33:38.149Z,9.31
2022-10-11T16:36:08.692Z,9.38
2022-10-11T16:38:36.282Z,9.27
2022-10-11T16:41:05.921Z,9.40
2022-10-11T16:43:44.279Z,9.36
2022-10-11T16:46:11.158Z,9.22
2022-10-11T16:48:38.478Z,9.16
2022-10-11T16:51:07.579Z,9.26
2022-10-11T16:53:35.892Z,9.19
2022-10-11T16:56:10.389Z,9.29
2022-10-11T16:58:37.417Z,9.10
2022-10-11T17:01:09.331Z,9.14
2022-10-11T17:03:36.741Z,9.17
2022-10-11T17:06:04.902Z,9.17
2022-10-11T17:08:32.107Z,9.19
2022-10-11T17:10:59.217Z,9.16
2022-10-11T17:13:26.452Z,9.17
2022-10-11T17:15:53.300Z,8.97
2022-10-11T17:18:25.219Z,9.43
2022-10-11T17:21:07.701Z,9.24
2022-10-11T17:23:38.349Z,9.28
2022-10-11T17:26:11.228Z,9.37
2022-10-11T17:28:39.387Z,9.11
2022-10-11T17:31:06.795Z,9.04
2022-10-11T17:33:36.649Z,9.27
2022-10-11T17:36:32.705Z,9.04
2022-10-11T17:39:01.368Z,9.10
2022-10-11T17:41:32.107Z,9.01
2022-10-11T17:44:00.314Z,9.02
2022-10-11T17:46:27.336Z,9.00
2022-10-11T17:49:13.093Z,8.92
2022-10-11T17:51:41.053Z,8.94
2022-10-11T17:54:08.421Z,8.93
2022-10-11T17:56:40.082Z,8.94
2022-10-11T17:59:14.865Z,9.01
2022-10-11T18:01:41.911Z,8.91
2022-10-11T18:04:10.586Z,8.95
2022-10-11T18:09:27.478Z,9.04
2022-10-11T18:11:54.389Z,9.21
2022-10-11T18:14:21.312Z,9.09
2022-10-11T18:16:48.565Z,9.13
2022-10-11T18:19:15.584Z,9.34
2022-10-11T18:21:42.600Z,9.19
2022-10-11T18:24:15.185Z,9.10
2022-10-11T18:26:43.047Z,9.08
2022-10-11T18:29:09.961Z,8.93
2022-10-11T18:31:36.953Z,9.08
2022-10-11T18:34:05.588Z,9.27
2022-10-11T18:36:32.989Z,9.03
2022-10-11T18:39:11.762Z,9.27
2022-10-11T18:41:39.705Z,9.12
2022-10-11T18:44:08.834Z,9.13
2022-10-11T18:46:36.069Z,8.97
2022-10-11T18:49:03.486Z,9.13
2022-10-11T18:51:38.159Z,9.25
2022-10-11T18:54:06.854Z,9.24
2022-10-11T18:56:35.740Z,9.46
2022-10-11T18:59:03.908Z,9.16
2022-10-11T19:01:36.360Z,9.24
2022-10-11T19:04:04.981Z,9.34
2022-10-11T19:06:41.440Z,9.44
2022-10-11T19:09:28.460Z,9.35
2022-10-11T19:12:00.142Z,9.46
2022-10-11T19:14:29.561Z,9.38
2022-10-11T19:16:57.295Z,9.32
2022-10-11T19:20:01.261Z,9.36
2022-10-11T19:22:28.279Z,9.37
2022-10-11T19:24:55.070Z,9.46
2022-10-11T19:27:22.090Z,9.45
2022-10-11T19:29:48.989Z,9.31
2022-10-11T19:32:15.874Z,9.21
2022-10-11T19:34:42.746Z,9.28
2022-10-11T19:37:09.551Z,9.12
2022-10-11T19:39:36.458Z,9.00
2022-10-11T19:42:03.497Z,8.96
2022-10-11T19:44:31.756Z,8.93
2022-10-11T19:47:04.920Z,9.11
2022-10-11T19:49:32.167Z,9.13
2022-10-11T19:51:59.127Z,9.15
2022-10-11T19:54:25.997Z,9.06
2022-10-11T19:56:52.883Z,8.91
2022-10-11T19:59:19.977Z,9.05
2022-10-11T20:01:53.255Z,9.03
2022-10-11T20:07:08.189Z,8.82
2022-10-11T20:09:35.224Z,8.83
2022-10-11T20:12:02.157Z,8.62
2022-10-11T20:14:29.022Z,8.66
2022-10-11T20:16:55.913Z,8.80
2022-10-11T20:19:27.712Z,8.69
2022-10-11T20:21:57.252Z,8.77
2022-10-11T20:24:24.058Z,8.83
2022-10-11T20:26:50.918Z,8.68
2022-10-11T20:29:17.796Z,8.61
2022-10-11T20:31:44.877Z,8.68
2022-10-11T20:34:11.787Z,8.86
2022-10-11T20:36:38.702Z,8.88
2022-10-11T20:39:05.685Z,8.81
2022-10-11T20:41:37.522Z,8.83
2022-10-11T20:44:05.177Z,8.85
2022-10-11T20:46:34.243Z,8.88
2022-10-11T20:49:04.161Z,8.76
2022-10-11T20:51:32.785Z,8.91
2022-10-11T20:54:00.674Z,8.88
2022-10-11T20:56:28.049Z,8.94
2022-10-11T20:58:56.444Z,8.80
2022-10-11T21:01:29.750Z,8.72
2022-10-11T21:03:58.822Z,8.80
2022-10-11T21:06:26.292Z,8.91
2022-10-11T21:08:57.967Z,8.99
2022-10-11T21:11:30.640Z,8.85
2022-10-11T21:13:59.196Z,9.01
2022-10-11T21:16:27.059Z,8.79
2022-10-11T21:18:56.077Z,8.81
2022-10-11T21:21:32.764Z,8.93
2022-10-11T21:24:01.725Z,8.91
2022-10-11T21:26:30.225Z,9.11
2022-10-11T21:28:57.643Z,8.97
2022-10-11T21:31:24.547Z,8.92
2022-10-11T21:33:51.791Z,9.05
2022-10-11T21:36:23.379Z,8.96
2022-10-11T21:38:51.589Z,8.91
2022-10-11T21:41:26.313Z,8.96
2022-10-11T21:43:53.625Z,8.98
2022-10-11T21:46:32.519Z,8.96
2022-10-11T21:49:12.331Z,8.85
2022-10-11T21:51:39.125Z,8.94
2022-10-11T21:54:06.041Z,8.91
2022-10-11T21:56:32.940Z,8.97
2022-10-11T21:58:59.783Z,8.97
2022-10-11T22:01:26.610Z,8.87
2022-10-11T22:04:04.407Z,8.99
2022-10-11T22:06:31.319Z,8.89
2022-10-11T22:08:58.107Z,8.94
2022-10-11T22:11:25.297Z,8.94
2022-10-11T22:13:52.100Z,8.98
2022-10-11T22:16:19.370Z,9.19
2022-10-11T22:18:46.479Z,9.14
2022-10-11T22:21:16.377Z,9.11
2022-10-11T22:23:46.234Z,9.22
2022-10-11T22:26:16.574Z,9.14
2022-10-11T22:28:43.994Z,8.94
2022-10-11T22:31:10.832Z,9.11
2022-10-11T22:33:38.104Z,8.99
2022-10-11T22:36:07.518Z,9.08
2022-10-11T22:38:45.339Z,9.05
2022-10-11T22:41:12.457Z,9.14
2022-10-11T22:43:39.316Z,9.16
2022-10-11T22:46:06.814Z,9.13
2022-10-11T22:48:34.083Z,9.06
2022-10-11T22:51:01.625Z,9.20
2022-10-11T22:53:29.124Z,9.15
2022-10-11T22:55:56.406Z,9.31
2022-10-11T22:58:23.287Z,9.36
2022-10-11T23:00:50.240Z,9.24
2022-10-11T23:03:18.810Z,9.34
2022-10-11T23:05:55.061Z,9.44
2022-10-11T23:08:21.991Z,9.27
2022-10-11T23:10:54.404Z,9.18
2022-10-11T23:13:21.603Z,9.38
2022-10-11T23:15:48.503Z,9.24
2022-10-11T23:18:16.974Z,9.33
2022-10-11T23:20:44.365Z,9.26
2022-10-11T23:23:11.297Z,9.37
2022-10-11T23:25:39.168Z,9.44
2022-10-11T23:28:06.286Z,9.40
2022-10-11T23:30:33.131Z,9.42
2022-10-11T23:33:00.071Z,9.29
2022-10-11T23:35:26.951Z,9.38
2022-10-11T23:37:54.119Z,9.41
2022-10-11T23:40:21.131Z,9.51
2022-10-11T23:42:48.017Z,9.41
2022-10-11T23:45:14.914Z,9.59
2022-10-11T23:47:41.811Z,9.40
2022-10-11T23:50:09.106Z,9.42
2022-10-11T23:52:36.211Z,9.41
2022-10-11T23:55:03.329Z,9.58
2022-10-11T23:57:30.348Z,9.52
2022-10-11T23:59:57.136Z,9.66
